Time;durP1;ratioP1;P1;durP2;ratioP2;P2;SDS_P1;SDS_P2;PMS_P1;PMS_P2;Temp;Humidity;BMP_temperature;BMP_pressure;BME280_temperature;BME280_humidity;BME280_pressure;Samples;Min_cycle;Max_cycle;Signal;HPM_P1;HPM_P2
2022/03/13 00:00:18;;;;;;;3.93;1.93;;;;;;;;;;5062421;28;20052;-69
2022/03/13 00:02:45;;;;;;;4.60;2.60;;;;;;;;;;5068957;28;20025;-69
2022/03/13 00:05:16;;;;;;;3.30;1.85;;;;;;;;;;5061384;28;20028;-69
2022/03/13 00:07:42;;;;;;;1.70;1.27;;;;;;;;;;5067367;28;20025;-69
2022/03/13 00:10:08;;;;;;;3.22;2.53;;;;;;;;;;5045033;28;20139;-69
2022/03/13 00:12:35;;;;;;;1.92;1.35;;;;;;;;;;5068457;28;20025;-68
2022/03/13 00:15:03;;;;;;;2.00;1.20;;;;;;;;;;5061859;28;20120;-70
2022/03/13 00:17:30;;;;;;;2.17;1.40;;;;;;;;;;5050970;28;20020;-69
2022/03/13 00:20:00;;;;;;;3.20;1.20;;;;;;;;;;5062880;28;20573;-69
2022/03/13 00:22:27;;;;;;;2.58;2.03;;;;;;;;;;5069830;28;20353;-67
2022/03/13 00:24:53;;;;;;;2.13;1.37;;;;;;;;;;5060856;28;20620;-69
2022/03/13 00:27:19;;;;;;;1.88;1.48;;;;;;;;;;5068706;28;20016;-69
2022/03/13 00:29:45;;;;;;;3.50;1.40;;;;;;;;;;5063986;28;20113;-69
2022/03/13 00:32:12;;;;;;;2.72;1.83;;;;;;;;;;5070214;28;20443;-69
2022/03/13 00:34:38;;;;;;;1.65;1.25;;;9.00;88.50;;;;;;5061997;28;20397;-69
2022/03/13 00:37:04;;;;;;;1.73;1.58;;;;;;;;;;5067161;28;20036;-69
2022/03/13 00:39:30;;;;;;;2.30;2.00;;;;;;;;;;5063640;28;20501;-69
2022/03/13 00:41:56;;;;;;;2.45;1.60;;;;;;;;;;5067607;28;20450;-70
2022/03/13 00:44:22;;;;;;;4.65;2.47;;;;;;;;;;5061850;28;20036;-68
2022/03/13 00:46:48;;;;;;;1.48;1.38;;;;;;;;;;5067014;28;20024;-69
2022/03/13 00:49:14;;;;;;;3.10;1.70;;;;;;;;;;5064612;28;20056;-69
2022/03/13 00:51:40;;;;;;;2.35;1.40;;;;;;;;;;5066008;28;20438;-69
2022/03/13 00:54:06;;;;;;;4.05;2.28;;;;;;;;;;5061658;28;20037;-68
2022/03/13 00:56:32;;;;;;;5.22;1.95;;;;;;;;;;5067516;28;20056;-69
2022/03/13 00:58:59;;;;;;;7.32;2.75;;;8.40;81.80;;;;;;5065782;28;20044;-69
2022/03/13 01:01:25;;;;;;;2.33;2.00;;;;;;;;;;5062583;28;20040;-69
2022/03/13 01:03:52;;;;;;;2.42;1.58;;;;;;;;;;5064012;28;20032;-69
2022/03/13 01:06:18;;;;;;;1.77;1.37;;;;;;;;;;5064705;28;20032;-68
2022/03/13 01:08:46;;;;;;;2.75;1.90;;;;;;;;;;5067938;28;20047;-70
2022/03/13 01:11:18;;;;;;;2.47;1.52;;;8.00;84.40;;;;;;5063030;28;20033;-69
2022/03/13 01:13:44;;;;;;;5.85;3.22;;;;;;;;;;5061257;28;20064;-69
2022/03/13 01:16:14;;;;;;;5.13;2.10;;;;;;;;;;5064289;28;20119;-69
2022/03/13 01:18:42;;;;;;;3.17;1.85;;;;;;;;;;5067944;28;20472;-69
2022/03/13 01:21:09;;;;;;;2.95;1.98;;;8.10;84.50;;;;;;5061089;28;20064;-69
2022/03/13 01:23:35;;;;;;;3.00;1.63;;;;;;;;;;5065659;28;20058;-70
2022/03/13 01:26:37;;;;;;;4.85;1.70;;;;;;;;;;5062948;28;20748;-69
2022/03/13 01:29:10;;;;;;;2.13;1.48;;;;;;;;;;5066312;28;20024;-70
2022/03/13 01:31:37;;;;;;;2.80;1.50;;;;;;;;;;5064632;28;20056;-68
2022/03/13 01:34:05;;;;;;;1.73;1.35;;;;;;;;;;5060722;28;20059;-68
2022/03/13 01:36:30;;;;;;;;;;;;;;;;;;5064907;28;20573;-69
2022/03/13 01:38:58;;;;;;;4.70;1.65;;;;;;;;;;5065545;28;19998;-70
2022/03/13 01:41:24;;;;;;;;;;;;;;;;;;5063643;28;20834;-69
2022/03/13 01:43:50;;;;;;;1.90;1.40;;;;;;;;;;5062131;28;19916;-70
2022/03/13 01:46:17;;;;;;;1.83;1.58;;;;;;;;;;5063887;28;20035;-68
2022/03/13 01:48:59;;;;;;;4.82;1.92;;;;;;;;;;5048050;28;20158;-69
2022/03/13 01:51:26;;;;;;;4.28;1.77;;;;;;;;;;5062239;28;20037;-69
2022/03/13 01:53:53;;;;;;;3.13;1.55;;;;;;;;;;5063361;28;20038;-69
2022/03/13 01:56:20;;;;;;;1.65;1.33;;;;;;;;;;5063023;28;20032;-68
2022/03/13 01:58:49;;;;;;;1.33;1.23;;;;;;;;;;5048048;28;20028;-69
2022/03/13 02:01:16;;;;;;;5.15;2.00;;;;;;;;;;5063206;28;20028;-69
2022/03/13 02:03:42;;;;;;;1.23;1.13;;;;;;;;;;5062643;28;20696;-69
2022/03/13 02:06:08;;;;;;;5.90;2.42;;;;;;;;;;5044175;28;20029;-69
2022/03/13 02:08:38;;;;;;;7.70;1.45;;;;;;;;;;5066233;28;20574;-69
2022/03/13 02:11:05;;;;;;;2.53;1.65;;;;;;;;;;5060515;28;20111;-69
2022/03/13 02:13:34;;;;;;;3.22;2.53;;;;;;;;;;5062569;28;20036;-69
2022/03/13 02:16:00;;;;;;;4.45;1.90;;;;;;;;;;5061652;28;20109;-69
2022/03/13 02:18:26;;;;;;;1.58;1.48;;;;;;;;;;5065656;28;20024;-70
2022/03/13 02:20:52;;;;;;;1.60;1.02;;;;;;;;;;5061685;28;20033;-69
2022/03/13 02:23:28;;;;;;;1.25;1.15;;;7.40;87.70;;;;;;5047403;28;20040;-69
2022/03/13 02:25:56;;;;;;;1.70;1.15;;;;;;;;;;5061072;28;20107;-69
2022/03/13 02:28:24;;;;;;;2.97;1.52;;;7.30;88.40;;;;;;5065371;28;20020;-68
2022/03/13 02:30:50;;;;;;;5.25;1.65;;;;;;;;;;5061077;28;20036;-69
2022/03/13 02:33:18;;;;;;;3.07;1.27;;;;;;;;;;5065311;28;20016;-68
2022/03/13 02:35:48;;;;;;;3.78;1.50;;;;;;;;;;5060090;28;20439;-69
2022/03/13 02:38:14;;;;;;;2.30;1.00;;;;;;;;;;5064006;28;20028;-69
2022/03/13 02:40:41;;;;;;;3.30;1.50;;;;;;;;;;5061322;28;20036;-69
2022/03/13 02:43:07;;;;;;;1.88;1.17;;;;;;;;;;5064855;28;20039;-68
2022/03/13 02:45:33;;;;;;;2.97;0.90;;;;;;;;;;5058725;28;20036;-69
2022/03/13 02:48:00;;;;;;;2.00;1.13;;;;;;;;;;5064632;28;20036;-69
2022/03/13 02:50:26;;;;;;;2.67;1.13;;;;;;;;;;5060689;28;20016;-68
2022/03/13 02:52:52;;;;;;;3.08;1.80;;;;;;;;;;5064961;28;20024;-69
2022/03/13 02:55:18;;;;;;;2.38;1.52;;;;;;;;;;5058506;28;20077;-69
2022/03/13 02:57:44;;;;;;;2.83;1.75;;;;;;;;;;5064895;28;20032;-70
2022/03/13 03:00:11;;;;;;;1.45;1.35;;;;;;;;;;5059588;28;20635;-68
2022/03/13 03:02:37;;;;;;;2.92;1.80;;;;;;;;;;5064719;28;20028;-70
2022/03/13 03:05:06;;;;;;;4.25;2.10;;;;;;;;;;5058207;28;20033;-68
2022/03/13 03:07:33;;;;;;;2.22;1.52;;;;;;;;;;5064584;28;20385;-69
2022/03/13 03:09:59;;;;;;;1.25;1.13;;;;;;;;;;5060190;28;20082;-70
2022/03/13 03:12:27;;;;;;;;;;;;;;;;;;5064910;28;20055;-68
2022/03/13 03:14:53;;;;;;;4.10;1.10;;;;;;;;;;5059699;28;20397;-69
2022/03/13 03:17:19;;;;;;;1.75;1.00;;;;;;;;;;5065546;28;20049;-69
2022/03/13 03:19:45;;;;;;;1.83;0.95;;;6.80;97.50;;;;;;5041958;28;20044;-70
2022/03/13 03:22:12;;;;;;;4.75;1.65;;;;;;;;;;5046994;28;20077;-69
2022/03/13 03:24:38;;;;;;;1.77;1.13;;;;;;;;;;5057592;28;20060;-69
2022/03/13 03:27:04;;;;;;;1.65;1.33;;;;;;;;;;5064484;28;20643;-69
2022/03/13 03:29:30;;;;;;;2.35;1.08;;;;;;;;;;5060884;28;20047;-69
2022/03/13 03:31:57;;;;;;;2.55;1.30;;;;;;;;;;5064485;28;20017;-69
2022/03/13 03:34:24;;;;;;;3.92;2.20;;;;;;;;;;5058166;28;20073;-68
2022/03/13 03:36:56;;;;;;;3.35;2.72;;;6.90;90.60;;;;;;5061921;28;20024;-69
2022/03/13 03:39:23;;;;;;;3.60;1.92;;;;;;;;;;5040774;28;20058;-69
2022/03/13 03:41:50;;;;;;;2.30;1.23;;;;;;;;;;5064536;28;20025;-68
2022/03/13 03:44:16;;;;;;;6.43;1.50;;;;;;;;;;5058608;28;20032;-69
2022/03/13 03:46:44;;;;;;;2.65;1.67;;;6.80;91.10;;;;;;5063832;28;20087;-69
2022/03/13 03:49:10;;;;;;;3.63;1.98;;;;;;;;;;5041699;28;20032;-69
2022/03/13 03:51:37;;;;;;;2.58;1.08;;;;;;;;;;5062670;28;20103;-69
2022/03/13 03:54:04;;;;;;;4.38;2.00;;;;;;;;;;5061068;28;20062;-69
2022/03/13 03:56:30;;;;;;;2.70;1.80;;;;;;;;;;5062029;28;20074;-69
2022/03/13 03:58:56;;;;;;;3.88;2.53;;;;;;;;;;5064554;28;20059;-70
2022/03/13 04:01:22;;;;;;;9.00;2.72;;;;;;;;;;5058438;28;20047;-68
2022/03/13 04:03:48;;;;;;;4.90;2.38;;;;;;;;;;5061076;28;20519;-69
2022/03/13 04:06:15;;;;;;;3.38;2.10;;;;;;;;;;5061107;28;20037;-68
2022/03/13 04:08:41;;;;;;;2.78;1.90;;;;;;;;;;5065105;28;20052;-70
2022/03/13 04:11:08;;;;;;;6.55;1.75;;;;;;;;;;5059368;28;20074;-69
2022/03/13 04:13:36;;;;;;;4.97;3.05;;;;;;;;;;5064799;28;20524;-70
2022/03/13 04:16:02;;;;;;;3.53;1.90;;;;;;;;;;5063452;28;20036;-69
2022/03/13 04:18:28;;;;;;;1.77;1.48;;;;;;;;;;5068169;28;20051;-69
2022/03/13 04:20:54;;;;;;;3.78;1.70;;;;;;;;;;5064526;28;20501;-69
2022/03/13 04:23:20;;;;;;;5.28;1.55;;;;;;;;;;5066779;28;20099;-69
2022/03/13 04:25:46;;;;;;;2.90;1.73;;;;;;;;;;5063690;28;20028;-69
2022/03/13 04:28:12;;;;;;;3.15;1.77;;;;;;;;;;5068750;28;20032;-69
2022/03/13 04:30:39;;;;;;;2.38;1.90;;;;;;;;;;5063392;28;20024;-69
2022/03/13 04:33:06;;;;;;;4.32;1.48;;;;;;;;;;5067247;28;20035;-70
2022/03/13 04:35:32;;;;;;;2.13;1.77;;;;;;;;;;5062573;28;20078;-68
2022/03/13 04:37:58;;;;;;;3.25;2.10;;;;;;;;;;5049498;28;20375;-69
2022/03/13 04:40:23;;;;;;;2.40;1.70;;;6.40;96.60;;;;;;5062645;28;20059;-69
2022/03/13 04:42:49;;;;;;;3.75;1.95;;;;;;;;;;5063816;28;20052;-69
2022/03/13 04:45:16;;;;;;;3.88;2.00;;;;;;;;;;5061223;28;20167;-69
2022/03/13 04:47:42;;;;;;;4.47;1.75;;;;;;;;;;5067848;28;20431;-68
2022/03/13 04:50:08;;;;;;;4.43;1.88;;;;;;;;;;5063747;28;20021;-69
2022/03/13 04:52:34;;;;;;;3.15;1.75;;;;;;;;;;5065966;28;20048;-68
2022/03/13 04:55:00;;;;;;;7.38;2.03;;;;;;;;;;5041708;28;20127;-69
2022/03/13 04:57:26;;;;;;;3.00;1.60;;;;;;;;;;5066568;28;20503;-69
2022/03/13 04:59:52;;;;;;;2.75;2.28;;;;;;;;;;5064421;28;20040;-68
2022/03/13 05:02:18;;;;;;;6.18;3.20;;;;;;;;;;5065420;28;20731;-69
2022/03/13 05:04:44;;;;;;;2.47;1.85;;;;;;;;;;5060963;28;20094;-69
2022/03/13 05:07:10;;;;;;;4.13;2.33;;;6.20;92.20;;;;;;5066145;28;20043;-69
2022/03/13 05:09:36;;;;;;;3.72;2.20;;;;;;;;;;5060807;28;20060;-69
2022/03/13 05:12:05;;;;;;;2.50;2.17;;;6.20;92.80;;;;;;5065461;28;20033;-69
2022/03/13 05:14:31;;;;;;;4.10;1.58;;;;;;;;;;5062446;28;20021;-69
2022/03/13 05:16:58;;;;;;;4.22;2.55;;;;;;;;;;5046969;28;20042;-69
2022/03/13 05:19:24;;;;;;;6.28;1.95;;;;;;;;;;5063838;28;20122;-69
2022/03/13 05:21:50;;;;;;;6.40;2.65;;;;;;;;;;5064714;28;20036;-68
2022/03/13 05:24:16;;;;;;;4.38;2.10;;;;;;;;;;5062467;28;20123;-69
2022/03/13 05:26:42;;;;;;;3.10;2.47;;;;;;;;;;5064813;28;20470;-68
2022/03/13 05:29:09;;;;;;;3.42;1.65;;;;;;;;;;5063724;28;20032;-70
2022/03/13 05:31:35;;;;;;;3.58;2.00;;;;;;;;;;5064711;28;20035;-68
2022/03/13 05:34:01;;;;;;;2.85;1.70;;;;;;;;;;5062905;28;20119;-69
2022/03/13 05:36:27;;;;;;;3.88;2.00;;;;;;;;;;5062707;28;20031;-69
2022/03/13 05:38:53;;;;;;;7.82;2.63;;;;;;;;;;5066620;28;20464;-69
2022/03/13 05:41:21;;;;;;;7.05;3.85;;;;;;;;;;5061892;28;20271;-69
2022/03/13 05:43:48;;;;;;;3.40;2.20;;;;;;;;;;5063539;28;20165;-69
2022/03/13 05:46:14;;;;;;;4.97;2.50;;;;;;;;;;5062019;28;20038;-68
2022/03/13 05:48:40;;;;;;;5.88;2.92;;;;;;;;;;5064806;28;20055;-69
2022/03/13 05:51:06;;;;;;;3.33;2.75;;;;;;;;;;5062769;28;20048;-68
2022/03/13 05:53:32;;;;;;;4.00;2.30;;;;;;;;;;5063979;28;20028;-69
2022/03/13 05:55:58;;;;;;;3.28;1.98;;;;;;;;;;5060678;28;20115;-69
2022/03/13 05:58:24;;;;;;;1.50;1.38;;;;;;;;;;5066237;28;20059;-68
2022/03/13 06:01:00;;;;;;;5.97;2.55;;;;;;;;;;5061298;28;20238;-69
2022/03/13 06:03:26;;;;;;;1.92;1.17;;;;;;;;;;5063410;28;20028;-69
2022/03/13 06:05:53;;;;;;;6.53;4.10;;;;;;;;;;5063505;28;20054;-69
2022/03/13 06:08:19;;;;;;;3.83;1.85;;;;;;;;;;5065211;28;20045;-69
2022/03/13 06:10:45;;;;;;;1.63;1.48;;;;;;;;;;5060973;28;20035;-69
2022/03/13 06:13:12;;;;;;;2.08;1.70;;;;;;;;;;5066031;28;20029;-69
2022/03/13 06:15:38;;;;;;;3.30;1.58;;;;;;;;;;5058752;28;20572;-69
2022/03/13 06:18:04;;;;;;;2.42;1.58;;;;;;;;;;5064848;28;20036;-69
2022/03/13 06:20:30;;;;;;;4.35;1.85;;;;;;;;;;5062763;28;20044;-70
2022/03/13 06:22:57;;;;;;;2.10;1.60;;;;;;;;;;5065647;28;20125;-68
2022/03/13 06:25:23;;;;;;;2.30;1.40;;;;;;;;;;5057933;28;20039;-69
2022/03/13 06:27:49;;;;;;;1.20;1.10;;;;;;;;;;5065537;28;20040;-70
2022/03/13 06:30:19;;;;;;;1.63;1.45;;;;;;;;;;5061724;28;20120;-69
2022/03/13 06:32:49;;;;;;;1.65;1.20;;;;;;;;;;5066178;28;20052;-69
2022/03/13 06:35:17;;;;;;;4.20;2.05;;;;;;;;;;5057835;28;20119;-69
2022/03/13 06:37:43;;;;;;;3.20;1.92;;;9.00;82.20;;;;;;5065404;28;20012;-69
2022/03/13 06:40:10;;;;;;;3.08;1.83;;;;;;;;;;5060040;28;20040;-68
2022/03/13 06:42:37;;;;;;;4.45;1.80;;;;;;;;;;5065589;28;20034;-70
2022/03/13 06:45:04;;;;;;;2.83;1.53;;;;;;;;;;5057929;28;20047;-69
2022/03/13 06:47:30;;;;;;;1.77;1.45;;;;;;;;;;5066100;28;20349;-69
2022/03/13 06:49:56;;;;;;;1.90;1.30;;;;;;;;;;5042688;28;20505;-69
2022/03/13 06:52:22;;;;;;;1.98;1.20;;;;;;;;;;5064765;28;20052;-69
2022/03/13 06:54:48;;;;;;;2.28;1.10;;;;;;;;;;5056636;28;20127;-68
2022/03/13 06:57:17;;;;;;;2.97;1.23;;;;;;;;;;5064452;28;20024;-69
2022/03/13 06:59:44;;;;;;;2.28;1.25;;;;;;;;;;5060228;28;20047;-69
2022/03/13 07:02:11;;;;;;;2.20;1.30;;;;;;;;;;5062732;28;20078;-69
2022/03/13 07:04:37;;;;;;;2.42;1.00;;;;;;;;;;5058007;28;20028;-68
2022/03/13 07:07:03;;;;;;;2.20;1.23;;;10.00;96.00;;;;;;5063697;28;20638;-69
2022/03/13 07:09:29;;;;;;;2.08;1.17;;;;;;;;;;5041870;28;20061;-69
2022/03/13 07:11:55;;;;;;;1.15;1.00;;;;;;;;;;5064969;28;20029;-69
2022/03/13 07:14:21;;;;;;;2.05;0.95;;;;;;;;;;5059844;28;20520;-70
2022/03/13 07:16:48;;;;;;;1.98;1.15;;;;;;;;;;5060006;28;20055;-69
2022/03/13 07:19:14;;;;;;;3.42;1.60;;;;;;;;;;5060573;28;20037;-69
2022/03/13 07:21:40;;;;;;;4.28;1.40;;;;;;;;;;5061778;28;20568;-70
2022/03/13 07:24:06;;;;;;;2.47;1.38;;;;;;;;;;5060614;28;20599;-70
2022/03/13 07:26:33;;;;;;;2.65;1.20;;;;;;;;;;5060301;28;20029;-69
2022/03/13 07:29:02;;;;;;;1.52;1.23;;;;;;;;;;5043731;28;20035;-70
2022/03/13 07:31:29;;;;;;;2.72;1.67;;;;;;;;;;5060104;28;20035;-69
2022/03/13 07:33:55;;;;;;;2.00;1.50;;;10.50;78.70;;;;;;5062363;28;20036;-69
2022/03/13 07:36:21;;;;;;;4.80;1.13;;;;;;;;;;5058160;28;20060;-70
2022/03/13 07:38:47;;;;;;;1.85;1.15;;;;;;;;;;5064103;28;20115;-69
2022/03/13 07:41:13;;;;;;;1.55;0.88;;;10.80;85.00;;;;;;5058832;28;20036;-69
2022/03/13 07:43:39;;;;;;;1.30;1.10;;;;;;;;;;5063228;28;20097;-68
2022/03/13 07:46:05;;;;;;;1.48;0.98;;;;;;;;;;5058857;28;20032;-68
2022/03/13 07:48:34;;;;;;;2.70;1.75;;;11.60;93.00;;;;;;5069454;28;20036;-69
2022/03/13 07:51:00;;;;;;;6.10;1.35;;;;;;;;;;5061971;28;20082;-70
2022/03/13 07:53:28;;;;;;;1.90;1.30;;;;;;;;;;5068021;28;20038;-70
2022/03/13 07:55:54;;;;;;;2.38;1.15;;;;;;;;;;5063188;28;20035;-69
2022/03/13 07:58:20;;;;;;;1.30;0.95;;;;;;;;;;5067819;28;20169;-69
2022/03/13 08:00:47;;;;;;;2.17;1.58;;;;;;;;;;5062639;28;20178;-69
2022/03/13 08:03:17;;;;;;;2.25;1.25;;;;;;;;;;5068176;28;20619;-68
2022/03/13 08:05:43;;;;;;;1.05;0.82;;;;;;;;;;5062877;28;20028;-69
2022/03/13 08:08:09;;;;;;;2.03;1.38;;;;;;;;;;5066651;28;20049;-69
2022/03/13 08:10:35;;;;;;;3.60;1.90;;;;;;;;;;5063199;28;20524;-70
2022/03/13 08:13:01;;;;;;;2.20;1.00;;;;;;;;;;5066683;28;20033;-68
2022/03/13 08:15:27;;;;;;;1.63;1.10;;;;;;;;;;5061520;28;20029;-69
2022/03/13 08:17:53;;;;;;;1.90;1.40;;;11.70;90.50;;;;;;5068887;28;20517;-69
2022/03/13 08:20:19;;;;;;;2.63;1.50;;;;;;;;;;5046052;28;20129;-70
2022/03/13 08:22:45;;;;;;;3.70;1.42;;;;;;;;;;5066875;28;20044;-69
2022/03/13 08:25:15;;;;;;;2.75;1.23;;;11.60;92.60;;;;;;5061383;28;20032;-69
2022/03/13 08:27:41;;;;;;;2.50;1.55;;;;;;;;;;5067946;28;20040;-70
2022/03/13 08:30:09;;;;;;;2.45;1.00;;;;;;;;;;5064414;28;20383;-70
2022/03/13 08:32:35;;;;;;;;;;;;;;;;;;5067757;28;20037;-69
2022/03/13 08:35:01;;;;;;;1.80;0.98;;;;;;;;;;5061486;28;19913;-72
2022/03/13 08:37:27;;;;;;;2.05;1.10;;;;;;;;;;5067100;28;20029;-70
2022/03/13 08:39:53;;;;;;;1.15;0.90;;;;;;;;;;5063010;28;20044;-70
2022/03/13 08:42:19;;;;;;;2.60;1.58;;;;;;;;;;5068792;28;20085;-71
2022/03/13 08:44:45;;;;;;;3.08;1.55;;;;;;;;;;5062064;28;20036;-70
2022/03/13 08:47:11;;;;;;;1.65;1.05;;;11.30;93.60;;;;;;5066476;28;20043;-70
2022/03/13 08:49:37;;;;;;;0.98;0.98;;;;;;;;;;5063918;28;20764;-70
2022/03/13 08:52:03;;;;;;;1.35;0.60;;;11.70;92.20;;;;;;5066055;28;20025;-70
2022/03/13 08:54:29;;;;;;;1.48;1.17;;;;;;;;;;5061879;28;20189;-70
2022/03/13 08:56:55;;;;;;;2.45;1.15;;;;;;;;;;5066252;28;20523;-70
2022/03/13 08:59:23;;;;;;;2.35;2.17;;;;;;;;;;5058264;28;20543;-71
2022/03/13 09:01:49;;;;;;;0.88;0.88;;;;;;;;;;5065357;28;20036;-69
2022/03/13 09:04:15;;;;;;;1.15;1.02;;;;;;;;;;5047666;28;20037;-71
2022/03/13 09:06:43;;;;;;;1.95;1.48;;;;;;;;;;5061361;28;20028;-71
2022/03/13 09:09:09;;;;;;;;;;;;;;;;;;5062214;28;20413;-72
2022/03/13 09:11:35;;;;;;;1.50;1.25;;;;;;;;;;5065955;28;19916;-72
2022/03/13 09:14:01;;;;;;;1.90;1.73;;;;;;;;;;5062752;28;20040;-71
2022/03/13 09:16:31;;;;;;;1.35;1.25;;;;;;;;;;5062004;28;20079;-71
2022/03/13 09:18:57;;;;;;;1.30;1.05;;;;;;;;;;5064297;28;20021;-74
2022/03/13 09:21:23;;;;;;;1.88;1.20;;;;;;;;;;5062450;28;20074;-70
2022/03/13 09:23:50;;;;;;;2.67;1.50;;;;;;;;;;5063231;28;20074;-69
2022/03/13 09:26:16;;;;;;;2.22;1.52;;;;;;;;;;5061994;28;20024;-70
2022/03/13 09:28:42;;;;;;;5.25;1.35;;;;;;;;;;5046909;28;20031;-70
2022/03/13 09:31:10;;;;;;;3.53;2.10;;;;;;;;;;5060654;28;20060;-71
2022/03/13 09:33:36;;;;;;;1.17;1.08;;;;;;;;;;5062391;28;20063;-69
2022/03/13 09:36:02;;;;;;;1.30;0.75;;;;;;;;;;5042453;28;20425;-70
2022/03/13 09:38:28;;;;;;;2.60;1.00;;;;;;;;;;5064165;28;20032;-70
2022/03/13 09:40:55;;;;;;;1.92;1.33;;;;;;;;;;5058679;28;20037;-68
2022/03/13 09:43:21;;;;;;;1.48;1.00;;;;;;;;;;5065126;28;20029;-68
2022/03/13 09:45:48;;;;;;;1.83;1.60;;;;;;;;;;5060171;28;20032;-69
2022/03/13 09:48:16;;;;;;;1.83;1.25;;;;;;;;;;5063856;28;20033;-69
2022/03/13 09:50:45;;;;;;;1.80;1.35;;;;;;;;;;5060738;28;20063;-69
2022/03/13 09:53:12;;;;;;;3.10;1.75;;;;;;;;;;5062303;28;20032;-68
2022/03/13 09:55:38;;;;;;;6.68;1.00;;;;;;;;;;5056707;28;20028;-69
2022/03/13 09:58:06;;;;;;;1.65;1.27;;;;;;;;;;5062990;28;20184;-69
2022/03/13 10:00:33;;;;;;;2.15;1.42;;;;;;;;;;5058359;28;20040;-68
2022/03/13 10:02:59;;;;;;;1.67;1.15;;;;;;;;;;5048010;28;20094;-68
2022/03/13 10:05:27;;;;;;;4.57;1.30;;;;;;;;;;5057075;28;20035;-69
2022/03/13 10:07:53;;;;;;;1.40;1.30;;;;;;;;;;5063074;28;20028;-68
2022/03/13 10:10:19;;;;;;;2.95;1.27;;;;;;;;;;5057495;28;20024;-69
2022/03/13 10:12:46;;;;;;;2.78;1.48;;;;;;;;;;5047000;28;20032;-69
2022/03/13 10:15:13;;;;;;;2.15;1.08;;;;;;;;;;5057060;28;20030;-68
2022/03/13 10:17:40;;;;;;;1.33;0.93;;;;;;;;;;5062576;28;20127;-68
2022/03/13 10:20:25;;;;;;;2.15;1.55;;;;;;;;;;5058208;28;20477;-68
2022/03/13 10:23:00;;;;;;;3.63;1.98;;;;;;;;;;5063760;28;20055;-69
2022/03/13 10:25:29;;;;;;;2.58;1.17;;;;;;;;;;5056550;28;20489;-70
2022/03/13 10:28:00;;;;;;;3.38;1.27;;;;;;;;;;5045264;28;20051;-70
2022/03/13 10:30:26;;;;;;;1.38;1.27;;;;;;;;;;5059769;28;20634;-71
2022/03/13 10:32:59;;;;;;;2.22;1.92;;;;;;;;;;5065559;28;20428;-73
2022/03/13 10:35:25;;;;;;;1.75;1.08;;;;;;;;;;5057392;28;20025;-71
2022/03/13 10:37:51;;;;;;;1.55;0.82;;;;;;;;;;5062915;28;20032;-71
2022/03/13 10:40:24;;;;;;;1.55;1.17;;;;;;;;;;5058070;28;20029;-71
2022/03/13 10:42:51;;;;;;;1.98;1.30;;;;;;;;;;5062205;28;20028;-71
2022/03/13 10:45:53;;;;;;;2.33;1.45;;;;;;;;;;5057219;28;20037;-71
2022/03/13 10:48:30;;;;;;;2.22;1.67;;;;;;;;;;5018134;28;20037;-73
2022/03/13 10:50:59;;;;;;;1.45;1.35;;;;;;;;;;5013255;28;20136;-71
2022/03/13 10:53:27;;;;;;;3.05;1.30;;;;;;;;;;5018395;28;20063;-74
2022/03/13 10:56:09;;;;;;;4.18;1.50;;;;;;;;;;5015445;28;20530;-68
2022/03/13 10:58:37;;;;;;;2.08;1.35;;;;;;;;;;5017375;28;20157;-67
2022/03/13 11:01:10;;;;;;;1.50;1.20;;;;;;;;;;5014516;28;20081;-68
2022/03/13 11:03:37;;;;;;;2.55;1.25;;;;;;;;;;5013776;28;20041;-67
2022/03/13 11:06:04;;;;;;;5.20;1.33;;;;;;;;;;5014019;28;20041;-67
2022/03/13 11:08:30;;;;;;;1.45;1.00;;;;;;;;;;5021927;28;20049;-68
2022/03/13 11:11:00;;;;;;;6.32;1.45;;;;;;;;;;5012694;28;20080;-66
2022/03/13 11:13:27;;;;;;;2.03;1.52;;;;;;;;;;5016372;28;20514;-68
2022/03/13 11:15:57;;;;;;;2.22;1.60;;;;;;;;;;5014531;28;20045;-67
2022/03/13 11:18:23;;;;;;;1.70;1.30;;;;;;;;;;5016170;28;20087;-67
2022/03/13 11:20:49;;;;;;;2.33;1.60;;;;;;;;;;5010726;28;20076;-67
2022/03/13 11:23:17;;;;;;;2.00;1.38;;;;;;;;;;5056602;28;20068;-67
2022/03/13 11:25:44;;;;;;;2.97;1.52;;;;;;;;;;5055366;28;20786;-68
2022/03/13 11:28:10;;;;;;;1.27;0.93;;;;;;;;;;5060610;28;20130;-67
2022/03/13 11:30:36;;;;;;;1.25;0.90;;;;;;;;;;5056389;28;20078;-67
2022/03/13 11:33:02;;;;;;;1.20;1.10;;;;;;;;;;5061559;28;20685;-68
2022/03/13 11:35:31;;;;;;;1.95;1.30;;;;;;;;;;5055059;28;20036;-70
2022/03/13 11:38:00;;;;;;;1.40;0.90;;;;;;;;;;5061604;28;20017;-69
2022/03/13 11:40:32;;;;;;;1.70;0.98;;;;;;;;;;5056484;28;20099;-68
2022/03/13 11:43:22;;;;;;;2.45;1.40;;;;;;;;;;5061195;28;20033;-67
2022/03/13 11:45:50;;;;;;;3.65;1.25;;;;;;;;;;5044305;28;20555;-67
2022/03/13 11:48:19;;;;;;;4.03;1.10;;;;;;;;;;5060882;28;20024;-68
2022/03/13 11:50:57;;;;;;;1.45;1.25;;;;;;;;;;5058869;28;20078;-68
2022/03/13 11:53:31;;;;;;;0.77;0.68;;;;;;;;;;5060026;28;20087;-68
2022/03/13 11:56:00;;;;;;;2.90;1.23;;;;;;;;;;5059126;28;20027;-68
2022/03/13 11:58:46;;;;;;;1.90;1.15;;;;;;;;;;5060861;28;20029;-73
2022/03/13 12:01:19;;;;;;;1.88;1.27;;;;;;;;;;5057116;28;20044;-71
2022/03/13 12:04:21;;;;;;;4.00;0.95;;;;;;;;;;5060998;28;20123;-74
2022/03/13 12:06:48;;;;;;;2.60;1.38;;;;;;;;;;5057490;28;20412;-71
2022/03/13 12:09:15;;;;;;;1.90;1.20;;;;;;;;;;5057966;28;20068;-71
2022/03/13 12:11:50;;;;;;;2.80;1.92;;;;;;;;;;5061911;28;20151;-69
2022/03/13 12:14:17;;;;;;;2.08;1.35;;;;;;;;;;5060399;28;20043;-74
2022/03/13 12:16:44;;;;;;;1.15;0.98;;;;;;;;;;5058180;28;20052;-74
2022/03/13 12:19:11;;;;;;;1.23;0.98;;;;;;;;;;5056740;28;20036;-73
2022/03/13 12:21:37;;;;;;;2.33;1.48;;;12.30;66.70;;;;;;5061052;28;20032;-73
2022/03/13 12:24:20;;;;;;;1.77;1.00;;;;;;;;;;5058986;28;20136;-73
2022/03/13 12:26:47;;;;;;;1.58;1.08;;;;;;;;;;5056819;28;20282;-73
2022/03/13 12:29:14;;;;;;;1.97;1.00;;;;;;;;;;5063441;28;20020;-72
2022/03/13 12:31:59;;;;;;;1.50;1.40;;;;;;;;;;5061857;28;20047;-72
2022/03/13 12:34:25;;;;;;;2.70;1.02;;;;;;;;;;5064385;28;20024;-71
2022/03/13 12:36:53;;;;;;;1.08;0.90;;;;;;;;;;5065430;28;20047;-71
2022/03/13 12:39:19;;;;;;;3.53;1.70;;;;;;;;;;5061820;28;20037;-72
2022/03/13 12:41:45;;;;;;;1.30;0.85;;;;;;;;;;5066364;28;20025;-71
2022/03/13 12:44:12;;;;;;;2.92;0.98;;;;;;;;;;5047592;28;20028;-72
2022/03/13 12:46:39;;;;;;;1.15;1.00;;;;;;;;;;5060019;28;20028;-68
2022/03/13 12:49:06;;;;;;;3.97;0.90;;;;;;;;;;5063233;28;20040;-68
2022/03/13 12:51:35;;;;;;;1.58;1.08;;;;;;;;;;5047780;28;20493;-70
2022/03/13 12:54:23;;;;;;;1.23;0.93;;;;;;;;;;5064930;28;20111;-69
2022/03/13 12:56:56;;;;;;;1.38;0.93;;;;;;;;;;5062840;28;20475;-68
2022/03/13 12:59:28;;;;;;;2.78;1.60;;;;;;;;;;5059931;28;20059;-70
2022/03/13 13:02:07;;;;;;;1.67;1.15;;;;;;;;;;5070387;28;20028;-68
2022/03/13 13:04:33;;;;;;;2.30;1.45;;;;;;;;;;5064605;28;20031;-68
2022/03/13 13:06:59;;;;;;;2.33;1.42;;;;;;;;;;5065282;28;20668;-67
2022/03/13 13:09:26;;;;;;;1.98;1.02;;;;;;;;;;5062156;28;20048;-68
2022/03/13 13:11:52;;;;;;;2.65;1.10;;;;;;;;;;5068675;28;20044;-68
2022/03/13 13:14:22;;;;;;;5.80;1.42;;;;;;;;;;5065005;28;20020;-69
2022/03/13 13:16:48;;;;;;;3.03;1.30;;;;;;;;;;5063980;28;20578;-68
2022/03/13 13:19:14;;;;;;;2.50;1.23;;;;;;;;;;5062770;28;20028;-69
2022/03/13 13:21:40;;;;;;;4.47;0.95;;;;;;;;;;5066935;28;20029;-69
2022/03/13 13:24:34;;;;;;;1.50;1.15;;;;;;;;;;5065675;28;20535;-68
2022/03/13 13:27:01;;;;;;;6.47;1.60;;;;;;;;;;5059719;28;20033;-69
2022/03/13 13:29:45;;;;;;;3.83;1.20;;;;;;;;;;5065801;28;20028;-69
2022/03/13 13:32:24;;;;;;;2.50;1.13;;;;;;;;;;5063071;28;20047;-69
2022/03/13 13:35:07;;;;;;;1.83;1.50;;;;;;;;;;5065939;28;20032;-70
2022/03/13 13:37:34;;;;;;;1.17;1.08;;;;;;;;;;5064552;28;20064;-68
2022/03/13 13:40:07;;;;;;;2.05;1.52;;;;;;;;;;5060899;28;20097;-69
2022/03/13 13:42:35;;;;;;;1.15;1.05;;;;;;;;;;5063601;28;20423;-70
2022/03/13 13:45:03;;;;;;;3.97;1.48;;;;;;;;;;5062641;28;20033;-67
2022/03/13 13:47:29;;;;;;;1.63;0.95;;;;;;;;;;5063412;28;20110;-69
2022/03/13 13:49:55;;;;;;;1.55;0.95;;;;;;;;;;5058423;28;20494;-68
2022/03/13 13:52:32;;;;;;;3.15;1.02;;;;;;;;;;5063980;28;20028;-68
2022/03/13 13:54:58;;;;;;;2.05;1.00;;;;;;;;;;5058034;28;20449;-69
2022/03/13 13:57:25;;;;;;;2.63;1.50;;;;;;;;;;5062228;28;20024;-69
2022/03/13 13:59:51;;;;;;;2.60;1.45;;;;;;;;;;5060765;28;20048;-67
2022/03/13 14:02:19;;;;;;;1.70;1.27;;;;;;;;;;5046596;28;20031;-68
2022/03/13 14:04:47;;;;;;;1.70;1.17;;;;;;;;;;5063256;28;20040;-67
2022/03/13 14:07:13;;;;;;;1.92;1.08;;;;;;;;;;5060216;28;20074;-67
2022/03/13 14:09:40;;;;;;;0.90;0.90;;;;;;;;;;5059284;28;20052;-68
2022/03/13 14:12:07;;;;;;;1.58;0.95;;;;;;;;;;5064078;28;20387;-68
2022/03/13 14:14:33;;;;;;;1.35;1.05;;;;;;;;;;5045119;28;20489;-68
2022/03/13 14:16:59;;;;;;;1.42;1.13;;;;;;;;;;5059374;28;20024;-69
2022/03/13 14:19:27;;;;;;;2.30;1.42;;;;;;;;;;5058199;28;20556;-70
2022/03/13 14:21:53;;;;;;;2.15;1.08;;;;;;;;;;5063230;28;20040;-68
2022/03/13 14:24:19;;;;;;;0.90;0.88;;;;;;;;;;5055753;28;20032;-70
2022/03/13 14:26:46;;;;;;;2.42;0.93;;;;;;;;;;5059287;28;20066;-67
2022/03/13 14:29:12;;;;;;;2.58;1.05;;;;;;;;;;5059462;28;20035;-70
2022/03/13 14:31:38;;;;;;;1.83;0.98;;;;;;;;;;5061327;28;20532;-70
2022/03/13 14:34:04;;;;;;;1.10;1.02;;;;;;;;;;5061837;28;20090;-70
2022/03/13 14:36:30;;;;;;;1.15;0.95;;;;;;;;;;5058501;28;20028;-71
2022/03/13 14:38:56;;;;;;;1.27;1.02;;;;;;;;;;5063390;28;20090;-70